Butterfield, Arkansas
Current Conditions -  °F | °C
As of 11:53 AM on Thursday 18 Dec 2014 (Local Time) from KHOT Reporting Station
Overcast Overcast  
Wind Chill: 38°   Ceiling: 800
Heat Index: 41°   Visibility: 10mi
Dew Point: 39°   Wind: 5mph
Humidity: 93%   Direction: 110°ESE
Pressure: 30.2"   Gusts: NA
Location:  34.3189°N, 92.8629°W
Report Text: KHOT 181753Z AUTO 11004KT 10SM OVC008 05/04 A3020 RMK AO2 SLP229 T00500039 10056 20028 58007
Loading
Personal Weather Stations






























Interactive Weather Map New forecast layout! Learn more

10-Day Weather Forecast

Advertisements
Track Severe Weather on mobile